createdAt,value
2023-02-16T00:00:16.328Z,27.82
2023-02-16T00:01:16.328Z,27.86
2023-02-16T00:02:16.374Z,27.86
2023-02-16T00:03:16.498Z,27.86
2023-02-16T00:04:16.387Z,27.85
2023-02-16T00:06:16.431Z,27.85
2023-02-16T00:08:16.468Z,27.85
2023-02-16T00:09:16.512Z,27.86
2023-02-16T00:10:16.524Z,27.88
2023-02-16T00:11:16.568Z,27.84
2023-02-16T00:12:16.620Z,27.86
2023-02-16T00:13:16.636Z,27.86
2023-02-16T00:14:16.618Z,27.84
2023-02-16T00:15:16.683Z,27.86
2023-02-16T00:16:16.791Z,27.85
2023-02-16T00:17:16.721Z,27.85
2023-02-16T00:18:16.710Z,27.84
2023-02-16T00:19:16.730Z,27.84
2023-02-16T00:20:17.693Z,27.86
2023-02-16T00:21:16.811Z,27.88
2023-02-16T00:22:16.804Z,27.86
2023-02-16T00:23:16.880Z,27.85
2023-02-16T00:24:16.868Z,27.86
2023-02-16T00:25:16.888Z,27.85
2023-02-16T00:26:16.910Z,27.85
2023-02-16T00:27:16.936Z,27.84
2023-02-16T00:28:16.963Z,27.85
2023-02-16T00:29:16.979Z,27.85
2023-02-16T00:30:17.051Z,27.85
2023-02-16T00:31:17.208Z,27.86
2023-02-16T00:32:17.169Z,27.86
2023-02-16T00:33:17.119Z,27.85
2023-02-16T00:34:17.109Z,27.85
2023-02-16T00:35:17.139Z,27.88
2023-02-16T00:36:17.174Z,27.85
2023-02-16T00:37:17.187Z,27.85
2023-02-16T00:38:17.224Z,27.84
2023-02-16T00:39:17.253Z,27.84
2023-02-16T00:40:17.326Z,27.86
2023-02-16T00:43:17.435Z,27.82
2023-02-16T00:44:17.474Z,27.85
2023-02-16T00:45:17.488Z,27.85
2023-02-16T00:46:17.591Z,27.82
2023-02-16T00:47:17.568Z,27.85
2023-02-16T00:48:17.617Z,27.85
2023-02-16T00:49:17.620Z,27.84
2023-02-16T00:50:17.665Z,27.86
2023-02-16T00:51:25.924Z,27.86
2023-02-16T00:52:18.686Z,27.85
2023-02-16T00:53:17.742Z,27.84
2023-02-16T00:54:17.736Z,27.85
2023-02-16T00:55:17.711Z,27.84
2023-02-16T00:56:17.726Z,27.84
2023-02-16T00:57:17.701Z,27.84
2023-02-16T00:58:17.679Z,27.85
2023-02-16T00:59:17.702Z,27.85
2023-02-16T01:00:17.684Z,27.84
2023-02-16T01:01:17.738Z,27.84
2023-02-16T01:02:17.697Z,27.88
2023-02-16T01:03:17.668Z,27.85
2023-02-16T01:04:17.695Z,27.85
2023-02-16T01:05:17.684Z,27.85
2023-02-16T01:06:17.653Z,27.84
2023-02-16T01:07:17.669Z,27.85
2023-02-16T01:08:17.722Z,27.84
2023-02-16T01:09:17.649Z,27.84
2023-02-16T01:10:17.634Z,27.84
2023-02-16T01:11:17.711Z,27.86
2023-02-16T01:12:17.688Z,27.84
2023-02-16T01:13:17.736Z,27.82
2023-02-16T01:14:17.746Z,27.82
2023-02-16T01:15:17.739Z,27.84
2023-02-16T01:16:17.833Z,27.82
2023-02-16T01:17:17.817Z,27.85
2023-02-16T01:18:17.798Z,27.84
2023-02-16T01:19:17.840Z,27.81
2023-02-16T01:20:17.840Z,27.85
2023-02-16T01:21:17.895Z,27.85
2023-02-16T01:22:17.872Z,27.85
2023-02-16T01:23:17.910Z,27.86
2023-02-16T01:24:17.903Z,27.84
2023-02-16T01:25:17.977Z,27.82
2023-02-16T01:26:17.996Z,27.85
2023-02-16T01:27:18.007Z,27.84
2023-02-16T01:28:18.011Z,27.84
2023-02-16T01:29:18.038Z,27.85
2023-02-16T01:30:18.131Z,27.84
2023-02-16T01:31:18.146Z,27.85
2023-02-16T01:32:18.196Z,27.84
2023-02-16T01:33:18.155Z,27.85
2023-02-16T01:34:18.180Z,27.86
2023-02-16T01:35:18.234Z,27.85
2023-02-16T01:36:18.234Z,27.84
2023-02-16T01:37:18.274Z,27.85
2023-02-16T02:13:19.184Z,27.84
2023-02-16T02:14:19.202Z,27.84
2023-02-16T02:15:19.228Z,27.82
2023-02-16T02:16:19.377Z,27.82
2023-02-16T02:17:19.302Z,27.82
2023-02-16T02:18:19.357Z,27.84
2023-02-16T02:19:19.336Z,27.82
2023-02-16T02:20:19.368Z,27.82
2023-02-16T02:21:19.430Z,27.84
2023-02-16T02:22:19.416Z,27.81
2023-02-16T02:23:19.416Z,27.82
2023-02-16T02:24:19.416Z,27.84
2023-02-16T02:25:19.428Z,27.84
2023-02-16T02:26:19.491Z,27.84
2023-02-16T02:27:19.495Z,27.82
2023-02-16T02:53:20.075Z,27.88
2023-02-16T02:54:20.184Z,27.86
2023-02-16T02:55:20.163Z,27.89
2023-02-16T02:56:20.156Z,27.89
2023-02-16T02:57:20.176Z,27.88
2023-02-16T02:58:20.258Z,27.92
2023-02-16T02:59:20.238Z,27.91
2023-02-16T03:00:20.319Z,27.93
2023-02-16T03:01:20.336Z,27.95
2023-02-16T03:02:20.337Z,27.93
2023-02-16T03:03:20.350Z,27.96
2023-02-16T03:04:20.388Z,27.97
2023-02-16T03:14:20.575Z,28.07
2023-02-16T03:15:20.621Z,28.07
2023-02-16T03:16:20.796Z,28.10
2023-02-16T03:17:20.635Z,28.12
2023-02-16T03:18:20.637Z,28.13
2023-02-16T03:19:20.655Z,28.12
2023-02-16T03:20:20.653Z,28.16
2023-02-16T03:21:20.696Z,28.17
2023-02-16T03:22:20.706Z,28.15
2023-02-16T03:23:20.705Z,28.16
2023-02-16T03:24:20.762Z,28.20
2023-02-16T03:25:20.723Z,28.20
2023-02-16T03:26:20.754Z,28.22
2023-02-16T03:27:20.771Z,28.22
2023-02-16T03:28:21.286Z,28.23
2023-02-16T03:29:20.809Z,28.24
2023-02-16T03:30:20.983Z,28.24
2023-02-16T03:31:20.938Z,28.24
2023-02-16T03:32:20.846Z,28.26
2023-02-16T03:33:20.895Z,28.24
2023-02-16T03:34:20.958Z,28.26
2023-02-16T03:35:20.924Z,28.28
2023-02-16T03:36:20.957Z,28.28
2023-02-16T04:35:22.636Z,28.19
2023-02-16T04:36:22.694Z,28.20
2023-02-16T04:37:22.721Z,28.19
2023-02-16T04:38:22.754Z,28.17
2023-02-16T04:39:22.830Z,28.16
2023-02-16T04:40:22.803Z,28.17
2023-02-16T04:41:22.829Z,28.17
2023-02-16T04:42:22.852Z,28.19
2023-02-16T04:43:22.894Z,28.17
2023-02-16T04:44:22.868Z,28.17
2023-02-16T04:45:22.898Z,28.17
2023-02-16T04:46:22.972Z,28.20
2023-02-16T04:47:22.942Z,28.17
2023-02-16T04:48:22.963Z,28.17
2023-02-16T04:49:22.989Z,28.19
2023-02-16T04:50:22.998Z,28.19
2023-02-16T04:51:23.011Z,28.16
2023-02-16T04:52:23.043Z,28.22
2023-02-16T04:53:23.092Z,28.23
2023-02-16T04:54:23.099Z,28.22
2023-02-16T04:55:23.126Z,28.22
2023-02-16T04:56:23.136Z,28.22
2023-02-16T04:57:23.174Z,28.22
2023-02-16T04:58:23.174Z,28.23
2023-02-16T04:59:23.172Z,28.22
2023-02-16T05:00:23.210Z,28.26
2023-02-16T05:01:23.334Z,28.26
2023-02-16T05:02:23.219Z,28.24
2023-02-16T05:03:23.226Z,28.26
2023-02-16T05:04:23.267Z,28.24
2023-02-16T05:05:23.234Z,28.26
2023-02-16T05:06:23.272Z,28.26
2023-02-16T05:07:23.272Z,28.27
2023-02-16T05:08:23.328Z,28.28
2023-02-16T05:09:23.339Z,28.27
2023-02-16T05:10:23.383Z,28.30
2023-02-16T05:11:23.384Z,28.30
2023-02-16T05:12:23.403Z,28.30
2023-02-16T05:13:23.407Z,28.28
2023-02-16T05:14:23.482Z,28.28
2023-02-16T05:15:23.457Z,28.28
2023-02-16T05:16:23.509Z,28.28
2023-02-16T05:17:23.533Z,28.32
2023-02-16T05:18:23.558Z,28.32
2023-02-16T05:19:23.567Z,28.30
2023-02-16T05:20:23.630Z,28.30
2023-02-16T05:21:23.662Z,28.30
2023-02-16T05:22:23.647Z,28.33
2023-02-16T05:23:23.710Z,28.32
2023-02-16T05:24:23.717Z,28.33
2023-02-16T05:25:23.732Z,28.32
2023-02-16T05:26:23.740Z,28.32
2023-02-16T05:27:23.737Z,28.32
2023-02-16T05:28:23.826Z,28.33
2023-02-16T05:29:23.786Z,28.33
2023-02-16T05:30:23.887Z,28.33
2023-02-16T05:31:23.986Z,28.32
2023-02-16T05:32:23.904Z,28.32
2023-02-16T05:33:23.872Z,28.32
2023-02-16T05:34:23.926Z,28.32
2023-02-16T05:35:23.936Z,28.32
2023-02-16T05:36:23.968Z,28.32
2023-02-16T05:37:23.995Z,28.30
2023-02-16T05:38:24.051Z,28.32
2023-02-16T05:39:24.052Z,28.34
2023-02-16T05:40:24.055Z,28.34
2023-02-16T05:41:24.129Z,28.36
2023-02-16T05:42:24.146Z,28.36
2023-02-16T05:43:24.112Z,28.34
2023-02-16T05:44:24.143Z,28.34
2023-02-16T05:45:24.143Z,28.37
2023-02-16T05:46:24.225Z,28.36
2023-02-16T05:47:24.178Z,28.36
2023-02-16T05:48:24.181Z,28.34
2023-02-16T05:49:24.282Z,28.33
2023-02-16T05:50:24.253Z,28.36
2023-02-16T05:51:24.249Z,28.36
2023-02-16T05:52:24.333Z,28.39
2023-02-16T05:53:24.347Z,28.36
2023-02-16T05:54:24.374Z,28.34
2023-02-16T05:55:24.422Z,28.37
2023-02-16T05:56:24.453Z,28.37
2023-02-16T05:57:24.503Z,28.36
2023-02-16T05:58:24.531Z,28.37
2023-02-16T05:59:24.598Z,28.39
2023-02-16T06:00:31.630Z,28.37
2023-02-16T06:01:24.592Z,28.37
2023-02-16T06:02:24.621Z,28.36
2023-02-16T06:03:24.602Z,28.37
2023-02-16T06:04:24.596Z,28.37
2023-02-16T06:05:24.536Z,28.37
2023-02-16T06:06:24.527Z,28.40
2023-02-16T06:07:24.530Z,28.39
2023-02-16T06:08:24.534Z,28.37
2023-02-16T06:09:24.542Z,28.40
2023-02-16T06:10:24.525Z,28.39
2023-02-16T06:11:24.489Z,28.42
2023-02-16T06:12:24.508Z,28.39
2023-02-16T06:13:24.493Z,28.37
2023-02-16T06:14:24.478Z,28.40
2023-02-16T06:15:24.438Z,28.39
2023-02-16T06:16:24.509Z,28.40
2023-02-16T06:17:24.413Z,28.40
2023-02-16T06:18:24.397Z,28.37
2023-02-16T06:19:24.387Z,28.42
2023-02-16T06:20:24.366Z,28.43
2023-02-16T06:21:24.346Z,28.39
2023-02-16T06:22:24.365Z,28.40
2023-02-16T06:23:24.349Z,28.42
2023-02-16T06:24:24.346Z,28.40
2023-02-16T06:25:24.293Z,28.42
2023-02-16T06:26:24.273Z,28.43
2023-02-16T06:27:24.289Z,28.42
2023-02-16T06:28:24.291Z,28.43
2023-02-16T06:29:24.271Z,28.42
2023-02-16T06:30:24.307Z,28.42
2023-02-16T06:31:24.366Z,28.40
2023-02-16T06:32:24.438Z,28.43
2023-02-16T06:33:24.180Z,28.46
2023-02-16T06:34:24.176Z,28.43
2023-02-16T06:35:24.163Z,28.43
2023-02-16T06:36:24.140Z,28.43
2023-02-16T06:37:24.087Z,28.40
2023-02-16T06:38:24.072Z,28.44
2023-02-16T06:39:24.071Z,28.44
2023-02-16T06:40:24.059Z,28.43
2023-02-16T06:41:24.057Z,28.43
2023-02-16T06:42:24.071Z,28.44
2023-02-16T06:43:24.042Z,28.43
2023-02-16T06:44:24.117Z,28.43
2023-02-16T06:45:31.133Z,28.42
2023-02-16T06:46:23.997Z,28.44
2023-02-16T06:47:23.955Z,28.46
2023-02-16T06:48:23.955Z,28.46
2023-02-16T06:49:26.084Z,28.47
2023-02-16T06:50:23.955Z,28.43
2023-02-16T06:51:23.933Z,28.46
2023-02-16T06:52:23.916Z,28.44
2023-02-16T06:53:23.888Z,28.46
2023-02-16T06:54:23.907Z,28.44
2023-02-16T06:55:23.868Z,28.47
2023-02-16T06:56:23.845Z,28.46
2023-02-16T06:57:23.871Z,28.44
2023-02-16T06:58:23.829Z,28.44
2023-02-16T06:59:23.843Z,28.44
2023-02-16T07:00:23.858Z,28.48
2023-02-16T07:01:23.802Z,28.47
2023-02-16T07:02:23.813Z,28.47
2023-02-16T07:03:23.835Z,28.44
2023-02-16T07:04:23.821Z,28.48
2023-02-16T07:05:23.775Z,28.48
2023-02-16T07:06:23.792Z,28.44
2023-02-16T07:07:23.748Z,28.46
2023-02-16T07:08:23.745Z,28.47
2023-02-16T07:09:23.747Z,28.48
2023-02-16T07:10:23.706Z,28.47
2023-02-16T07:11:23.691Z,28.48
2023-02-16T07:12:23.678Z,28.50
2023-02-16T07:13:23.655Z,28.51
2023-02-16T07:14:23.659Z,28.50
2023-02-16T07:15:23.653Z,28.51
2023-02-16T07:16:23.740Z,28.48
2023-02-16T07:17:23.621Z,28.50
2023-02-16T07:18:23.610Z,28.48
2023-02-16T07:19:23.610Z,28.48
2023-02-16T07:20:23.617Z,28.48
2023-02-16T07:21:23.578Z,28.50
2023-02-16T07:22:23.583Z,28.48
2023-02-16T07:23:23.550Z,28.50
2023-02-16T07:24:23.535Z,28.50
2023-02-16T07:25:23.521Z,28.48
2023-02-16T07:26:23.521Z,28.51
2023-02-16T07:27:23.495Z,28.48
2023-02-16T07:28:23.503Z,28.51
2023-02-16T07:29:23.467Z,28.50
2023-02-16T07:30:23.541Z,28.53
2023-02-16T07:31:23.509Z,28.50
2023-02-16T07:32:23.457Z,28.53
2023-02-16T07:33:23.411Z,28.51
2023-02-16T07:34:23.392Z,28.54
2023-02-16T07:35:23.440Z,28.53
2023-02-16T07:36:23.479Z,28.53
2023-02-16T07:37:23.488Z,28.56
2023-02-16T07:38:23.515Z,28.51
2023-02-16T07:39:23.596Z,28.56
2023-02-16T07:40:23.571Z,28.54
2023-02-16T07:41:23.670Z,28.56
2023-02-16T07:42:23.661Z,28.57
2023-02-16T07:43:23.705Z,28.54
2023-02-16T07:44:23.754Z,28.58
2023-02-16T07:45:23.807Z,28.60
2023-02-16T07:46:23.809Z,28.57
2023-02-16T07:47:23.827Z,28.60
2023-02-16T07:48:23.859Z,28.57
2023-02-16T07:49:23.871Z,28.58
2023-02-16T07:50:23.928Z,28.60
2023-02-16T07:51:24.013Z,28.60
2023-02-16T07:52:23.988Z,28.61
2023-02-16T07:53:24.039Z,28.63
2023-02-16T07:54:24.067Z,28.61
2023-02-16T07:55:24.122Z,28.60
2023-02-16T07:56:24.112Z,28.61
2023-02-16T07:57:24.147Z,28.64
2023-02-16T07:58:24.197Z,28.63
2023-02-16T07:59:24.248Z,28.66
2023-02-16T08:00:24.321Z,28.68
2023-02-16T08:01:24.330Z,28.67
2023-02-16T08:02:24.556Z,28.70
2023-02-16T08:03:24.613Z,28.71
2023-02-16T08:04:24.501Z,28.74
2023-02-16T08:05:24.488Z,28.73
2023-02-16T08:06:24.544Z,28.75
2023-02-16T08:07:24.543Z,28.74
2023-02-16T08:08:24.568Z,28.75
2023-02-16T08:09:24.591Z,28.78
2023-02-16T08:10:24.637Z,28.77
2023-02-16T08:11:24.684Z,28.78
2023-02-16T08:12:24.699Z,28.81
2023-02-16T08:13:24.724Z,28.79
2023-02-16T08:14:24.778Z,28.82
2023-02-16T08:15:24.818Z,28.82
2023-02-16T08:16:24.960Z,28.85
2023-02-16T08:17:24.894Z,28.84
2023-02-16T08:18:24.929Z,28.85
2023-02-16T08:19:24.929Z,28.85
2023-02-16T08:20:45.093Z,28.85
2023-02-16T08:21:25.934Z,28.84
2023-02-16T08:22:24.956Z,28.87
2023-02-16T08:23:24.932Z,28.88
2023-02-16T08:24:24.904Z,28.85
2023-02-16T08:25:24.915Z,28.84
2023-02-16T08:26:24.886Z,28.85
2023-02-16T08:27:24.871Z,28.87
2023-02-16T08:28:24.859Z,28.85
2023-02-16T08:29:24.821Z,28.84
2023-02-16T08:30:25.044Z,28.87
2023-02-16T08:31:25.082Z,28.84
2023-02-16T08:32:24.817Z,28.82
2023-02-16T08:33:24.824Z,28.84
2023-02-16T08:34:24.866Z,28.85
2023-02-16T08:35:24.912Z,28.87
2023-02-16T08:36:24.926Z,28.85
2023-02-16T08:37:24.939Z,28.85
2023-02-16T08:38:24.951Z,28.85
2023-02-16T08:39:24.977Z,28.82
2023-02-16T08:40:25.045Z,28.84
2023-02-16T08:41:25.058Z,28.85
2023-02-16T08:42:25.082Z,28.87
2023-02-16T08:43:25.145Z,28.88
2023-02-16T08:44:25.221Z,28.85
2023-02-16T08:45:25.220Z,28.87
2023-02-16T08:46:25.387Z,28.85
2023-02-16T08:47:25.269Z,28.84
2023-02-16T08:48:25.301Z,28.87
2023-02-16T08:49:25.348Z,28.82
2023-02-16T08:50:25.367Z,28.85
2023-02-16T08:51:25.431Z,28.85
2023-02-16T08:52:25.439Z,28.85
2023-02-16T08:53:25.483Z,28.85
2023-02-16T08:54:25.549Z,28.87
2023-02-16T08:55:25.543Z,28.88
2023-02-16T08:56:25.554Z,28.88
2023-02-16T08:57:25.600Z,28.88
2023-02-16T08:58:25.648Z,28.87
2023-02-16T08:59:28.324Z,28.90
2023-02-16T09:00:25.655Z,28.93
2023-02-16T09:01:25.689Z,28.90
2023-02-16T09:02:25.715Z,28.90
2023-02-16T09:03:25.598Z,28.90
2023-02-16T09:04:25.664Z,28.90
2023-02-16T09:05:25.608Z,28.90
2023-02-16T09:06:25.578Z,28.93
2023-02-16T09:07:25.540Z,28.91
2023-02-16T09:08:25.534Z,28.94
2023-02-16T09:09:25.504Z,28.94
2023-02-16T09:10:25.503Z,28.95
2023-02-16T09:11:25.489Z,28.94
2023-02-16T09:12:25.474Z,28.91
2023-02-16T09:13:25.434Z,28.94
2023-02-16T09:14:25.449Z,28.97
2023-02-16T09:15:25.439Z,28.97
2023-02-16T09:16:25.435Z,28.98
2023-02-16T09:17:25.435Z,28.98
2023-02-16T09:18:25.390Z,28.99
2023-02-16T09:19:25.366Z,29.01
2023-02-16T09:20:25.334Z,29.02
2023-02-16T09:21:25.378Z,29.01
2023-02-16T09:22:25.330Z,29.04
2023-02-16T09:23:25.302Z,29.04
2023-02-16T09:24:25.307Z,29.04
2023-02-16T09:25:25.289Z,29.05
2023-02-16T09:26:25.240Z,29.08
2023-02-16T09:27:25.224Z,29.09
2023-02-16T09:28:25.222Z,29.12
2023-02-16T09:29:25.191Z,29.14
2023-02-16T09:30:25.228Z,29.14
2023-02-16T09:31:25.284Z,29.15
2023-02-16T09:32:25.109Z,29.18
2023-02-16T09:33:25.133Z,29.19
2023-02-16T09:34:27.443Z,29.21
2023-02-16T09:35:25.058Z,29.22
2023-02-16T09:36:25.037Z,29.26
2023-02-16T09:37:25.007Z,29.26
2023-02-16T09:38:24.991Z,29.26
2023-02-16T09:39:24.992Z,29.29
2023-02-16T09:40:24.969Z,29.30
2023-02-16T09:41:25.085Z,29.33
2023-02-16T09:42:25.264Z,29.32
2023-02-16T09:43:25.068Z,29.33
2023-02-16T09:44:24.850Z,29.35
2023-02-16T09:45:24.825Z,29.36
2023-02-16T09:46:24.897Z,29.36
2023-02-16T09:47:24.774Z,29.40
2023-02-16T09:48:24.786Z,29.39
2023-02-16T09:49:24.707Z,29.44
2023-02-16T09:50:50.288Z,29.40
2023-02-16T09:51:33.862Z,29.40
2023-02-16T09:52:25.670Z,29.45
2023-02-16T09:53:24.608Z,29.42
2023-02-16T09:54:24.638Z,29.46
2023-02-16T09:55:24.584Z,29.46
2023-02-16T09:56:24.555Z,29.46
2023-02-16T09:57:24.525Z,29.48
2023-02-16T09:58:24.546Z,29.46
2023-02-16T09:59:24.504Z,29.48
2023-02-16T10:00:24.493Z,29.48
2023-02-16T10:01:24.516Z,29.48
2023-02-16T10:02:24.430Z,29.49
2023-02-16T10:03:24.403Z,29.49
2023-02-16T10:04:24.387Z,29.49
2023-02-16T10:05:24.389Z,29.49
2023-02-16T10:06:24.363Z,29.49
2023-02-16T10:07:24.339Z,29.48
2023-02-16T10:08:24.341Z,29.48
2023-02-16T10:09:24.313Z,29.46
2023-02-16T10:10:24.289Z,29.49
2023-02-16T10:11:24.255Z,29.48
2023-02-16T10:12:24.232Z,29.48
2023-02-16T10:13:24.202Z,29.49
2023-02-16T10:14:24.219Z,29.46
2023-02-16T10:15:24.189Z,29.46
2023-02-16T10:16:24.155Z,29.48
2023-02-16T10:17:24.131Z,29.46
2023-02-16T10:18:24.174Z,29.50
2023-02-16T10:19:24.100Z,29.48
2023-02-16T10:20:24.037Z,29.46
2023-02-16T10:21:24.043Z,29.48
2023-02-16T10:22:23.997Z,29.46
2023-02-16T10:23:23.997Z,29.46
2023-02-16T10:24:23.959Z,29.45
2023-02-16T10:25:23.932Z,29.46
2023-02-16T10:26:23.953Z,29.46
2023-02-16T10:27:23.935Z,29.45
2023-02-16T10:28:23.893Z,29.45
2023-02-16T10:29:23.857Z,29.46
2023-02-16T10:30:23.883Z,29.46
2023-02-16T10:31:23.967Z,29.44
2023-02-16T10:32:23.806Z,29.45
2023-02-16T10:33:23.799Z,29.44
2023-02-16T10:34:23.745Z,29.44
2023-02-16T10:35:23.741Z,29.45
2023-02-16T10:36:23.787Z,29.45
2023-02-16T10:37:23.721Z,29.44
2023-02-16T10:38:23.709Z,29.45
2023-02-16T10:39:23.705Z,29.44
2023-02-16T10:40:23.669Z,29.42
2023-02-16T10:41:23.690Z,29.45
2023-02-16T10:42:23.695Z,29.40
2023-02-16T10:43:23.707Z,29.42
2023-02-16T10:44:23.750Z,29.42
2023-02-16T10:45:25.719Z,29.44
2023-02-16T10:46:23.772Z,29.45
2023-02-16T10:47:23.709Z,29.44
2023-02-16T10:48:23.774Z,29.45
2023-02-16T10:49:23.770Z,29.45
2023-02-16T10:50:23.690Z,29.48
2023-02-16T10:51:25.521Z,29.48
2023-02-16T10:52:23.632Z,29.46
2023-02-16T10:53:23.634Z,29.49
2023-02-16T10:54:23.603Z,29.50
2023-02-16T10:55:23.583Z,29.50
2023-02-16T10:56:23.560Z,29.49
2023-02-16T10:57:23.528Z,29.50
2023-02-16T10:58:23.537Z,29.52
2023-02-16T10:59:23.465Z,29.50
2023-02-16T11:00:23.438Z,29.55
2023-02-16T11:01:23.429Z,29.53
2023-02-16T11:02:23.413Z,29.53
2023-02-16T11:03:23.411Z,29.53
2023-02-16T11:04:23.424Z,29.53
2023-02-16T11:05:23.347Z,29.55
2023-02-16T11:06:23.394Z,29.55
2023-02-16T11:07:23.339Z,29.55
2023-02-16T11:08:23.315Z,29.56
2023-02-16T11:09:23.299Z,29.56
2023-02-16T11:10:23.321Z,29.56
2023-02-16T11:11:23.344Z,29.55
2023-02-16T11:12:23.370Z,29.53
2023-02-16T11:13:23.365Z,29.55
2023-02-16T11:14:23.380Z,29.57
2023-02-16T11:15:23.377Z,29.56
2023-02-16T11:16:23.474Z,29.56
2023-02-16T11:17:23.406Z,29.55
2023-02-16T11:18:23.422Z,29.55
2023-02-16T11:19:23.409Z,29.56
2023-02-16T11:20:23.444Z,29.55
2023-02-16T11:21:23.481Z,29.55
2023-02-16T11:22:23.431Z,29.55
2023-02-16T11:23:23.479Z,29.57
2023-02-16T11:24:23.456Z,29.56
2023-02-16T11:25:23.487Z,29.55
2023-02-16T11:26:23.478Z,29.53
2023-02-16T11:27:23.493Z,29.52
2023-02-16T11:28:23.471Z,29.56
2023-02-16T11:29:23.487Z,29.53
2023-02-16T11:30:23.554Z,29.52
2023-02-16T11:31:23.612Z,29.52
2023-02-16T11:32:23.547Z,29.53
2023-02-16T11:33:23.551Z,29.53
2023-02-16T11:34:23.854Z,29.52
2023-02-16T11:35:23.933Z,29.53
2023-02-16T11:36:23.580Z,29.53
2023-02-16T11:37:23.560Z,29.52
2023-02-16T11:38:23.610Z,29.53
2023-02-16T11:39:23.600Z,29.50
2023-02-16T11:40:23.589Z,29.50
2023-02-16T11:41:23.625Z,29.50
2023-02-16T11:42:23.592Z,29.48
2023-02-16T11:43:23.601Z,29.49
2023-02-16T11:44:23.640Z,29.48
2023-02-16T11:45:23.637Z,29.49
2023-02-16T11:46:23.674Z,29.49
2023-02-16T11:47:23.656Z,29.49
2023-02-16T11:48:23.655Z,29.45
2023-02-16T11:49:23.675Z,29.48
2023-02-16T11:50:23.640Z,29.46
2023-02-16T11:51:23.649Z,29.48
2023-02-16T11:52:23.689Z,29.46
2023-02-16T11:53:23.689Z,29.48
2023-02-16T11:54:23.698Z,29.46
2023-02-16T11:55:23.750Z,29.44
2023-02-16T11:56:23.716Z,29.46
2023-02-16T11:57:23.740Z,29.44
2023-02-16T11:58:23.733Z,29.45
2023-02-16T11:59:23.703Z,29.45
2023-02-16T12:00:23.723Z,29.44
2023-02-16T12:01:23.754Z,29.44
2023-02-16T12:02:23.756Z,29.44
2023-02-16T12:03:23.763Z,29.42
2023-02-16T12:04:23.769Z,29.40
2023-02-16T12:05:23.811Z,29.42
2023-02-16T12:06:24.042Z,29.44
2023-02-16T12:07:23.811Z,29.44
2023-02-16T12:08:23.792Z,29.42
2023-02-16T12:09:23.817Z,29.42
2023-02-16T12:10:23.846Z,29.44
2023-02-16T12:11:23.874Z,29.44
2023-02-16T12:12:23.865Z,29.44
2023-02-16T12:13:23.875Z,29.40
2023-02-16T12:14:23.885Z,29.40
2023-02-16T12:15:23.877Z,29.40
2023-02-16T12:16:23.922Z,29.42
2023-02-16T12:17:23.886Z,29.39
2023-02-16T12:18:23.891Z,29.39
2023-02-16T12:19:23.928Z,29.39
2023-02-16T12:20:23.963Z,29.38
2023-02-16T12:21:23.953Z,29.36
2023-02-16T12:22:23.990Z,29.35
2023-02-16T12:23:23.944Z,29.38
2023-02-16T12:24:23.977Z,29.38
2023-02-16T12:25:23.989Z,29.36
2023-02-16T12:26:23.976Z,29.38
2023-02-16T12:27:23.970Z,29.39
2023-02-16T12:28:23.961Z,29.39
2023-02-16T12:29:23.976Z,29.36
2023-02-16T12:30:24.045Z,29.38
2023-02-16T12:31:24.263Z,29.40
2023-02-16T12:32:24.029Z,29.40
2023-02-16T12:33:24.033Z,29.38
2023-02-16T12:34:24.033Z,29.39
2023-02-16T12:35:24.053Z,29.36
2023-02-16T12:36:24.092Z,29.40
2023-02-16T12:37:24.096Z,29.39
2023-02-16T12:38:24.081Z,29.39
2023-02-16T12:39:24.191Z,29.40
2023-02-16T12:40:24.085Z,29.39
2023-02-16T12:41:24.087Z,29.39
2023-02-16T12:42:24.108Z,29.40
2023-02-16T12:43:24.113Z,29.40
2023-02-16T12:44:24.110Z,29.42
2023-02-16T12:45:24.149Z,29.42
2023-02-16T12:46:24.145Z,29.42
2023-02-16T12:47:24.120Z,29.42
2023-02-16T12:48:24.147Z,29.42
2023-02-16T12:49:24.136Z,29.44
2023-02-16T12:50:24.174Z,29.45
2023-02-16T12:51:24.135Z,29.42
2023-02-16T12:52:24.153Z,29.44
2023-02-16T12:53:24.176Z,29.42
2023-02-16T12:54:24.157Z,29.44
2023-02-16T12:55:24.169Z,29.45
2023-02-16T12:56:24.200Z,29.45
2023-02-16T12:57:24.219Z,29.42
2023-02-16T12:58:24.217Z,29.45
2023-02-16T12:59:24.208Z,29.46
2023-02-16T13:00:24.190Z,29.46
2023-02-16T13:01:24.204Z,29.45
2023-02-16T13:02:24.181Z,29.46
2023-02-16T13:03:24.229Z,29.46
2023-02-16T13:04:24.240Z,29.48
2023-02-16T13:05:24.226Z,29.46
2023-02-16T13:06:24.274Z,29.45
2023-02-16T13:07:24.258Z,29.48
2023-02-16T13:08:24.243Z,29.48
2023-02-16T13:09:24.243Z,29.48
2023-02-16T13:10:24.336Z,29.46
2023-02-16T13:11:24.265Z,29.46
2023-02-16T13:12:24.285Z,29.48
2023-02-16T13:13:24.253Z,29.48
2023-02-16T13:14:24.272Z,29.45
2023-02-16T13:15:24.260Z,29.46
2023-02-16T13:16:30.553Z,29.48
2023-02-16T13:17:25.238Z,29.46
2023-02-16T13:18:24.209Z,29.46
2023-02-16T13:19:24.179Z,29.46
2023-02-16T13:20:24.171Z,29.46
2023-02-16T13:21:24.153Z,29.46
2023-02-16T13:22:24.109Z,29.46
2023-02-16T13:23:24.099Z,29.46
2023-02-16T13:24:24.052Z,29.46
2023-02-16T13:25:24.073Z,29.45
2023-02-16T13:26:24.062Z,29.46
2023-02-16T13:27:23.979Z,29.46
2023-02-16T13:28:23.998Z,29.46
2023-02-16T13:29:24.001Z,29.45
2023-02-16T13:30:23.978Z,29.46
2023-02-16T13:31:24.002Z,29.46
2023-02-16T13:32:23.875Z,29.46
2023-02-16T13:33:23.797Z,29.46
2023-02-16T13:34:23.807Z,29.46
2023-02-16T13:35:23.852Z,29.45
2023-02-16T13:36:23.796Z,29.46
2023-02-16T13:37:23.842Z,29.45
2023-02-16T13:38:23.808Z,29.46
2023-02-16T13:39:23.814Z,29.46
2023-02-16T13:40:23.845Z,29.45
2023-02-16T13:41:23.849Z,29.44
2023-02-16T13:42:23.854Z,29.45
2023-02-16T13:43:23.861Z,29.46
2023-02-16T13:44:23.890Z,29.44
2023-02-16T13:45:23.889Z,29.45
2023-02-16T13:46:23.948Z,29.45
2023-02-16T13:47:23.921Z,29.42
2023-02-16T13:48:23.917Z,29.44
2023-02-16T13:49:23.920Z,29.44
2023-02-16T13:50:23.982Z,29.45
2023-02-16T13:51:23.987Z,29.42
2023-02-16T13:52:23.978Z,29.42
2023-02-16T13:53:23.956Z,29.40
2023-02-16T13:54:24.018Z,29.42
2023-02-16T13:55:24.579Z,29.40
2023-02-16T13:56:24.041Z,29.42
2023-02-16T13:57:24.008Z,29.42
2023-02-16T13:58:24.039Z,29.39
2023-02-16T13:59:24.057Z,29.40
2023-02-16T14:00:24.058Z,29.40
2023-02-16T14:01:24.110Z,29.39
2023-02-16T14:02:24.093Z,29.40
2023-02-16T14:03:24.069Z,29.39
2023-02-16T14:04:24.187Z,29.36
2023-02-16T14:05:24.225Z,29.39
2023-02-16T14:06:24.101Z,29.39
2023-02-16T14:07:24.144Z,29.38
2023-02-16T14:08:24.130Z,29.38
2023-02-16T14:09:24.147Z,29.40
2023-02-16T14:10:24.168Z,29.38
2023-02-16T14:11:24.152Z,29.36
2023-02-16T14:12:24.265Z,29.36
2023-02-16T14:13:24.181Z,29.35
2023-02-16T14:14:24.173Z,29.33
2023-02-16T14:15:24.178Z,29.32
2023-02-16T14:16:24.248Z,29.36
2023-02-16T14:17:24.259Z,29.33
2023-02-16T14:18:24.289Z,29.36
2023-02-16T14:19:24.250Z,29.35
2023-02-16T14:20:24.237Z,29.35
2023-02-16T14:21:24.269Z,29.32
2023-02-16T14:22:24.308Z,29.33
2023-02-16T14:23:24.295Z,29.32
2023-02-16T14:24:24.312Z,29.32
2023-02-16T14:25:24.338Z,29.30
2023-02-16T14:26:24.334Z,29.32
2023-02-16T14:27:24.389Z,29.32
2023-02-16T14:28:24.381Z,29.29
2023-02-16T14:29:24.328Z,29.29
2023-02-16T14:30:24.440Z,29.30
2023-02-16T14:31:24.592Z,29.30
2023-02-16T14:32:24.348Z,29.30
2023-02-16T14:33:24.342Z,29.29
2023-02-16T14:34:24.360Z,29.26
2023-02-16T14:35:24.336Z,29.28
2023-02-16T14:36:24.365Z,29.28
2023-02-16T14:37:24.380Z,29.26
2023-02-16T14:38:24.374Z,29.28
2023-02-16T14:39:24.393Z,29.28
2023-02-16T14:40:24.393Z,29.28
2023-02-16T14:41:24.400Z,29.26
2023-02-16T14:42:24.442Z,29.25
2023-02-16T14:43:24.446Z,29.24
2023-02-16T14:44:24.467Z,29.22
2023-02-16T14:45:24.462Z,29.22
2023-02-16T14:46:24.483Z,29.24
2023-02-16T14:47:24.525Z,29.21
2023-02-16T14:48:24.514Z,29.24
2023-02-16T14:49:24.485Z,29.24
2023-02-16T14:50:24.531Z,29.21
2023-02-16T14:51:24.550Z,29.21
2023-02-16T14:52:24.530Z,29.21
2023-02-16T14:53:24.578Z,29.19
2023-02-16T14:54:24.666Z,29.19
2023-02-16T14:55:24.606Z,29.21
2023-02-16T14:56:25.770Z,29.19
2023-02-16T14:57:24.647Z,29.21
2023-02-16T14:58:24.662Z,29.18
2023-02-16T14:59:24.672Z,29.16
2023-02-16T15:00:24.674Z,29.16
2023-02-16T15:01:24.684Z,29.15
2023-02-16T15:02:24.722Z,29.14
2023-02-16T15:03:24.776Z,29.15